Time;durP1;ratioP1;P1;durP2;ratioP2;P2;SDS_P1;SDS_P2;PMS_P1;PMS_P2;Temp;Humidity;BMP_temperature;BMP_pressure;BME280_temperature;BME280_humidity;BME280_pressure;Samples;Min_cycle;Max_cycle;Signal;HPM_P1;HPM_P2
2022/11/21 00:00:09;;;;;;;9.83;2.63;;;8.30;99.90;;;;;;4136951;28;20272;-94
2022/11/21 00:02:12;;;;;;;11.05;2.75;;;8.20;99.90;;;;;;4136478;28;20205;-93
2022/11/21 00:04:15;;;;;;;11.73;3.13;;;8.20;99.90;;;;;;4139688;28;20201;-94
2022/11/21 00:06:41;;;;;;;12.77;2.65;;;8.20;99.90;;;;;;4137402;28;20184;-95
2022/11/21 00:08:54;;;;;;;16.80;3.20;;;8.10;99.90;;;;;;4137766;28;20180;-95
2022/11/21 00:10:58;;;;;;;14.73;2.73;;;8.10;99.90;;;;;;4140129;28;20241;-93
2022/11/21 00:15:49;;;;;;;11.57;3.00;;;8.10;99.90;;;;;;4141677;28;20176;-94
2022/11/21 00:18:04;;;;;;;12.63;2.60;;;8.00;99.90;;;;;;4159744;28;20574;-94
2022/11/21 00:20:36;;;;;;;11.73;2.43;;;8.10;99.90;;;;;;4138746;28;20225;-94
2022/11/21 00:22:50;;;;;;;11.50;2.70;;;8.00;99.90;;;;;;4142468;28;20189;-94
2022/11/21 00:25:05;;;;;;;9.03;2.27;;;7.90;99.90;;;;;;4141306;28;20554;-96
2022/11/21 00:27:06;;;;;;;12.27;2.47;;;8.00;99.90;;;;;;4139654;28;20199;-93
2022/11/21 00:29:09;;;;;;;13.30;2.33;;;8.00;99.90;;;;;;4155645;28;20185;-95
2022/11/21 00:31:21;;;;;;;11.90;1.97;;;7.90;99.90;;;;;;4138084;28;20210;-94
2022/11/21 00:33:33;;;;;;;11.77;2.60;;;7.90;99.90;;;;;;4139328;28;20681;-95
2022/11/21 00:35:34;;;;;;;14.80;2.20;;;8.00;99.90;;;;;;4139729;28;20185;-94
2022/11/21 00:37:40;;;;;;;12.20;2.10;;;7.80;99.90;;;;;;4155406;28;20240;-94
2022/11/21 00:39:49;;;;;;;19.10;2.23;;;8.00;99.90;;;;;;4139173;28;20261;-95
2022/11/21 00:41:50;;;;;;;16.87;2.30;;;8.00;99.90;;;;;;4138722;28;20196;-95
2022/11/21 00:43:53;;;;;;;11.50;2.47;;;7.80;99.90;;;;;;4139945;28;20710;-96
2022/11/21 00:46:01;;;;;;;13.50;2.40;;;7.90;99.90;;;;;;4139976;28;20240;-94
2022/11/21 00:48:04;;;;;;;11.03;2.03;;;7.90;99.90;;;;;;4156802;28;20181;-92
2022/11/21 00:50:15;;;;;;;16.67;2.83;;;7.80;99.90;;;;;;4138494;28;20272;-94
2022/11/21 00:52:18;;;;;;;15.17;2.30;;;7.90;99.90;;;;;;4154505;28;20668;-95
2022/11/21 00:54:59;;;;;;;;;;;;;;;;;;;;;
2022/11/21 00:57:47;;;;;;;14.23;2.63;;;7.90;99.90;;;;;;4152914;28;20311;-95
2022/11/21 00:59:48;;;;;;;9.80;2.40;;;8.00;99.90;;;;;;4140879;28;20174;-93
2022/11/21 01:01:51;;;;;;;8.97;1.83;;;8.00;99.90;;;;;;4140768;28;20177;-93
2022/11/21 01:03:52;;;;;;;16.20;3.00;;;8.00;99.90;;;;;;4137341;28;20670;-92
2022/11/21 01:05:58;;;;;;;7.73;2.23;;;8.20;99.90;;;;;;4155527;28;20188;-94
2022/11/21 01:07:59;;;;;;;8.30;1.60;;;8.20;99.90;;;;;;4158303;28;20180;-93
2022/11/21 01:10:00;;;;;;;8.27;1.80;;;8.20;99.90;;;;;;4140431;28;20571;-93
2022/11/21 01:12:03;;;;;;;10.50;2.07;;;8.20;99.90;;;;;;4141327;28;20621;-93
2022/11/21 01:14:31;;;;;;;12.43;1.90;;;8.20;99.90;;;;;;4128034;28;20205;-94
2022/11/21 01:16:44;;;;;;;16.97;2.20;;;8.10;99.90;;;;;;4146118;28;20217;-94
2022/11/21 01:18:47;;;;;;;13.23;2.27;;;8.30;99.90;;;;;;4127290;28;20194;-93
2022/11/21 01:20:48;;;;;;;9.77;2.30;;;8.30;99.90;;;;;;4158536;28;20176;-93
2022/11/21 01:22:51;;;;;;;16.00;2.80;;;8.30;99.90;;;;;;4161276;28;20165;-94
2022/11/21 01:24:55;;;;;;;14.90;2.10;;;8.50;99.90;;;;;;4141389;28;20178;-96
2022/11/21 01:26:56;;;;;;;11.50;1.42;;;8.40;99.90;;;;;;4140138;28;20177;-94
2022/11/21 01:28:57;;;;;;;9.70;1.90;;;8.20;99.90;;;;;;4138641;28;20169;-94
2022/11/21 01:31:31;;;;;;;11.20;1.70;;;8.20;99.90;;;;;;4136896;28;20515;-94
2022/11/21 01:33:35;;;;;;;10.00;1.90;;;8.30;99.90;;;;;;4140248;28;20205;-95
2022/11/21 01:35:35;;;;;;;10.40;1.73;;;8.30;99.90;;;;;;4138891;28;20177;-95
2022/11/21 01:37:51;;;;;;;11.05;1.85;;;8.20;99.90;;;;;;4154623;28;20205;-92
2022/11/21 01:39:52;;;;;;;7.30;1.90;;;8.30;99.90;;;;;;4139144;28;20172;-94
2022/11/21 01:41:55;;;;;;;8.40;1.60;;;8.20;99.90;;;;;;4136651;28;20177;-93
2022/11/21 01:43:57;;;;;;;11.23;1.60;;;8.40;99.90;;;;;;4137756;28;20194;-95
2022/11/21 01:46:00;;;;;;;6.55;1.77;;;8.50;99.90;;;;;;4137833;28;20189;-95
2022/11/21 01:48:04;;;;;;;7.75;1.58;;;8.30;99.90;;;;;;4140062;28;20169;-94
2022/11/21 01:50:16;;;;;;;9.63;1.70;;;8.20;99.90;;;;;;4140613;28;20232;-95
2022/11/21 01:52:30;;;;;;;8.90;1.73;;;8.00;99.90;;;;;;4139434;28;20185;-93
2022/11/21 01:54:53;;;;;;;9.80;1.80;;;7.90;99.90;;;;;;4153304;28;20279;-94
2022/11/21 01:57:13;;;;;;;12.23;2.13;;;7.80;99.90;;;;;;4136626;28;20578;-93
2022/11/21 01:59:44;;;;;;;9.50;1.80;;;7.70;99.90;;;;;;4135902;28;20183;-94
2022/11/21 02:01:50;;;;;;;8.00;1.47;;;7.70;99.90;;;;;;4134171;28;20189;-95
2022/11/21 02:03:53;;;;;;;9.10;1.80;;;7.50;99.90;;;;;;4138005;28;20220;-93
2022/11/21 02:06:08;;;;;;;7.43;1.57;;;7.50;99.90;;;;;;4137461;28;20178;-95
2022/11/21 02:11:39;;;;;;;6.37;2.00;;;7.40;99.90;;;;;;4148006;28;20200;-95
2022/11/21 02:13:48;;;;;;;5.67;1.53;;;7.30;99.90;;;;;;4103800;28;20655;-93
2022/11/21 02:15:51;;;;;;;8.47;1.20;;;7.20;99.90;;;;;;4119491;28;20613;-93
2022/11/21 02:18:15;;;;;;;7.83;1.90;;;7.30;99.90;;;;;;4139449;28;20224;-93
2022/11/21 02:20:27;;;;;;;10.87;1.87;;;7.30;99.90;;;;;;4152839;28;20169;-95
2022/11/21 02:23:09;;;;;;;12.17;1.80;;;7.20;99.90;;;;;;4135937;28;20182;-95
2022/11/21 02:25:19;;;;;;;9.63;1.63;;;7.30;99.90;;;;;;4126822;28;20209;-94
2022/11/21 02:27:22;;;;;;;5.50;1.40;;;7.40;99.90;;;;;;4138244;28;20186;-93
2022/11/21 02:29:25;;;;;;;13.30;1.50;;;7.50;99.90;;;;;;4137460;28;20183;-94
2022/11/21 02:31:37;;;;;;;12.20;1.70;;;7.50;99.90;;;;;;4137588;28;20213;-94
2022/11/21 02:33:38;;;;;;;7.90;1.83;;;7.50;99.90;;;;;;4138743;28;20205;-93
2022/11/21 02:35:39;;;;;;;9.20;1.87;;;7.70;99.90;;;;;;4152662;28;20209;-94
2022/11/21 02:37:46;;;;;;;12.60;1.80;;;7.70;99.90;;;;;;4152510;28;20208;-94
2022/11/21 02:40:02;;;;;;;6.07;1.43;;;7.80;99.90;;;;;;4135420;28;20177;-93
2022/11/21 02:42:36;;;;;;;6.87;1.70;;;7.70;99.90;;;;;;4136817;28;20170;-93
2022/11/21 02:44:46;;;;;;;6.40;1.30;;;7.80;99.90;;;;;;4135328;28;20691;-94
2022/11/21 02:46:51;;;;;;;9.30;1.50;;;8.00;99.90;;;;;;4137681;28;20224;-93
2022/11/21 02:48:54;;;;;;;8.03;1.23;;;8.10;99.90;;;;;;4135899;28;20188;-94
2022/11/21 02:50:55;;;;;;;7.23;1.40;;;8.20;99.90;;;;;;4137504;28;20670;-94
2022/11/21 02:53:01;;;;;;;10.27;1.60;;;8.00;99.90;;;;;;4153943;28;20184;-92
2022/11/21 02:55:14;;;;;;;7.73;1.20;;;7.90;99.90;;;;;;4136891;28;20539;-95
2022/11/21 02:57:25;;;;;;;8.70;1.55;;;7.90;99.90;;;;;;4136877;28;20209;-94
2022/11/21 02:59:29;;;;;;;4.90;1.63;;;8.10;99.90;;;;;;4153555;28;20219;-94
2022/11/21 03:01:32;;;;;;;13.63;1.90;;;8.20;99.90;;;;;;4153577;28;20347;-93
2022/11/21 03:03:36;;;;;;;9.47;1.53;;;8.20;99.90;;;;;;4134928;28;20288;-95
2022/11/21 03:05:51;;;;;;;12.60;2.30;;;8.10;99.90;;;;;;4135873;28;20196;-95
2022/11/21 03:08:17;;;;;;;4.40;1.37;;;8.00;99.90;;;;;;4137163;28;20654;-96
2022/11/21 03:10:19;;;;;;;5.30;1.37;;;8.10;99.90;;;;;;4135604;28;20188;-93
2022/11/21 03:12:20;;;;;;;7.17;1.37;;;8.00;99.90;;;;;;4138236;28;20182;-93
2022/11/21 03:14:20;;;;;;;11.87;1.73;;;8.30;99.90;;;;;;4153515;28;20743;-93
2022/11/21 03:16:21;;;;;;;6.38;1.42;;;8.20;99.90;;;;;;4151466;28;20308;-92
2022/11/21 03:18:24;;;;;;;6.85;1.30;;;8.30;99.90;;;;;;4134966;28;20241;-92
2022/11/21 03:20:25;;;;;;;5.40;1.50;;;8.20;99.90;;;;;;4135502;28;20209;-94
2022/11/21 03:22:32;;;;;;;8.47;1.47;;;8.20;99.90;;;;;;4138050;28;20169;-95
2022/11/21 03:24:38;;;;;;;10.80;2.00;;;8.30;99.90;;;;;;4135641;28;20193;-93
2022/11/21 03:26:39;;;;;;;12.93;1.70;;;8.20;99.90;;;;;;4153795;28;20219;-93
2022/11/21 03:28:41;;;;;;;7.60;1.60;;;8.20;99.90;;;;;;4152559;28;20200;-94
2022/11/21 03:30:45;;;;;;;7.63;1.73;;;8.10;99.90;;;;;;4135464;28;20626;-92
2022/11/21 03:32:49;;;;;;;6.40;1.50;;;8.10;99.90;;;;;;4135555;28;20176;-95
2022/11/21 03:34:57;;;;;;;10.57;1.30;;;8.20;99.90;;;;;;4134659;28;20173;-93
2022/11/21 03:36:58;;;;;;;11.53;1.43;;;8.00;99.90;;;;;;4133691;28;20196;-93
2022/11/21 03:38:58;;;;;;;12.70;1.50;;;8.10;99.90;;;;;;4151200;28;20172;-93
2022/11/21 03:41:54;;;;;;;4.70;1.60;;;8.10;99.90;;;;;;4134963;28;20169;-95
2022/11/21 03:43:30;;;;;;;9.57;1.77;;;8.10;99.90;;;;;;4142572;28;20200;-94
2022/11/21 03:45:34;;;;;;;18.27;1.97;;;7.90;99.90;;;;;;4135413;28;20212;-94
2022/11/21 03:47:39;;;;;;;7.37;1.17;;;7.80;99.90;;;;;;4133915;28;20173;-94
2022/11/21 03:49:42;;;;;;;10.00;1.90;;;7.70;99.90;;;;;;4135285;28;20177;-93
2022/11/21 03:51:50;;;;;;;5.63;1.30;;;7.60;99.90;;;;;;4139023;28;20198;-94
2022/11/21 03:54:05;;;;;;;8.43;1.87;;;7.60;99.90;;;;;;4153389;28;20200;-94
2022/11/21 03:56:16;;;;;;;;;;;;;;;;;;;;;
2022/11/21 03:58:20;;;;;;;7.87;1.53;;;7.60;99.90;;;;;;4153089;28;20283;-95
2022/11/21 04:00:21;;;;;;;9.07;1.20;;;7.70;99.90;;;;;;4152605;28;20212;-92
2022/11/21 04:02:21;;;;;;;10.23;1.50;;;7.70;99.90;;;;;;4152993;28;20222;-93
2022/11/21 04:04:25;;;;;;;5.77;1.43;;;7.80;99.90;;;;;;4137440;28;20275;-94
2022/11/21 04:06:30;;;;;;;11.52;1.60;;;8.00;99.90;;;;;;4137706;28;20174;-93
2022/11/21 04:08:40;;;;;;;6.73;1.83;;;8.00;99.90;;;;;;4134789;28;20169;-96
2022/11/21 04:10:48;;;;;;;7.40;1.80;;;8.00;99.90;;;;;;4135258;28;20205;-94
2022/11/21 04:12:54;;;;;;;5.93;1.50;;;8.20;99.90;;;;;;4134760;28;20257;-93
2022/11/21 04:14:57;;;;;;;9.60;1.60;;;8.10;99.90;;;;;;4134898;28;20194;-93
2022/11/21 04:16:58;;;;;;;10.73;1.47;;;8.20;99.90;;;;;;4134745;28;20694;-92
2022/11/21 04:19:01;;;;;;;10.27;1.50;;;8.30;99.90;;;;;;4150971;28;20181;-91
2022/11/21 04:21:05;;;;;;;5.03;1.23;;;8.30;99.90;;;;;;4134468;28;20181;-94
2022/11/21 04:23:14;;;;;;;9.97;1.67;;;8.10;99.90;;;;;;4134489;28;20721;-93
2022/11/21 04:25:17;;;;;;;7.70;1.63;;;8.00;99.90;;;;;;4134852;28;20173;-94
2022/11/21 04:27:20;;;;;;;12.93;1.53;;;7.90;99.90;;;;;;4150621;28;20268;-91
2022/11/21 04:29:27;;;;;;;7.97;1.30;;;7.80;99.90;;;;;;4134609;28;20184;-93
2022/11/21 04:31:30;;;;;;;8.13;1.30;;;7.70;99.90;;;;;;4134551;28;20193;-93
2022/11/21 04:33:42;;;;;;;5.63;1.60;;;7.50;99.90;;;;;;4134531;28;20193;-93
2022/11/21 04:35:45;;;;;;;7.67;1.27;;;7.50;99.90;;;;;;4134556;28;20248;-91
2022/11/21 04:37:46;;;;;;;4.90;1.30;;;7.30;99.90;;;;;;4134489;28;20213;-92
2022/11/21 04:39:47;;;;;;;8.17;1.50;;;7.20;99.90;;;;;;4134550;28;20189;-93
2022/11/21 04:41:50;;;;;;;9.23;1.63;;;7.20;99.90;;;;;;4134714;28;20662;-94
2022/11/21 04:43:54;;;;;;;14.10;1.60;;;7.30;99.90;;;;;;4150799;28;20248;-92
2022/11/21 04:45:59;;;;;;;12.20;1.57;;;7.30;99.90;;;;;;4150612;28;20184;-93
2022/11/21 04:48:00;;;;;;;7.37;1.23;;;7.10;99.90;;;;;;4150604;28;20176;-94
2022/11/21 04:50:10;;;;;;;9.13;1.43;;;7.10;99.90;;;;;;4150534;28;20199;-92
2022/11/21 04:52:14;;;;;;;6.97;1.13;;;7.00;99.90;;;;;;4134360;28;20173;-93
2022/11/21 04:54:28;;;;;;;6.33;1.23;;;7.00;99.90;;;;;;4134391;28;20198;-92
2022/11/21 04:56:36;;;;;;;7.03;1.40;;;7.10;99.90;;;;;;4134822;28;20290;-92
2022/11/21 04:58:42;;;;;;;11.43;1.50;;;7.10;99.90;;;;;;4150345;28;20212;-94
2022/11/21 05:00:42;;;;;;;6.73;1.27;;;7.00;99.90;;;;;;4149782;28;20272;-90
2022/11/21 05:02:45;;;;;;;9.50;1.67;;;7.10;99.90;;;;;;4149955;28;20184;-94
2022/11/21 05:04:46;;;;;;;11.90;1.40;;;7.10;99.90;;;;;;4133667;28;20201;-92
2022/11/21 05:06:47;;;;;;;7.70;1.40;;;7.10;99.90;;;;;;4149874;28;20568;-92
2022/11/21 05:08:48;;;;;;;5.27;1.20;;;7.00;99.90;;;;;;4150197;28;20543;-91
2022/11/21 05:13:21;;;;;;;8.97;1.40;;;6.80;99.90;;;;;;4149895;28;20172;-93
2022/11/21 05:15:26;;;;;;;8.70;1.20;;;6.70;99.90;;;;;;4134397;28;20220;-93
2022/11/21 05:17:28;;;;;;;8.00;1.50;;;6.80;99.90;;;;;;4149805;28;20219;-93
2022/11/21 05:19:35;;;;;;;8.73;1.73;;;6.90;99.90;;;;;;4133755;28;20232;-95
2022/11/21 05:22:04;;;;;;;10.07;1.80;;;6.80;99.90;;;;;;4133756;28;20173;-93
2022/11/21 05:24:07;;;;;;;8.67;1.80;;;6.80;99.90;;;;;;4134111;28;20193;-93
2022/11/21 05:26:08;;;;;;;6.83;1.60;;;6.80;99.90;;;;;;4134171;28;20173;-92
2022/11/21 05:28:09;;;;;;;7.97;2.20;;;6.80;99.90;;;;;;4150119;28;20565;-92
2022/11/21 05:30:11;;;;;;;8.77;1.90;;;6.70;99.90;;;;;;4150017;28;20181;-93
2022/11/21 05:32:16;;;;;;;10.70;2.37;;;6.70;99.90;;;;;;4134044;28;20177;-93
2022/11/21 05:34:23;;;;;;;13.37;2.17;;;6.60;99.90;;;;;;4133878;28;20733;-94
2022/11/21 05:37:04;;;;;;;13.10;1.90;;;6.50;99.90;;;;;;4134141;28;20177;-94
2022/11/21 05:39:11;;;;;;;9.70;2.40;;;6.50;99.90;;;;;;4149373;28;20192;-95
2022/11/21 05:41:29;;;;;;;8.43;2.40;;;6.40;99.90;;;;;;4133358;28;20634;-93
2022/11/21 05:43:48;;;;;;;11.33;2.73;;;6.30;99.90;;;;;;4133931;28;20193;-92
2022/11/21 05:46:20;;;;;;;14.63;2.73;;;6.40;99.90;;;;;;4133320;28;20638;-94
2022/11/21 05:48:23;;;;;;;15.13;2.57;;;6.30;99.90;;;;;;4132272;28;20193;-91
2022/11/21 05:50:27;;;;;;;12.80;2.60;;;6.40;99.90;;;;;;4133504;28;20712;-94
2022/11/21 05:52:31;;;;;;;10.50;3.00;;;6.30;99.90;;;;;;4133731;28;20537;-93
2022/11/21 05:54:34;;;;;;;12.37;2.77;;;6.40;99.90;;;;;;4133386;28;20204;-94
2022/11/21 05:56:38;;;;;;;12.03;2.80;;;6.30;99.90;;;;;;4133366;28;20185;-93
2022/11/21 05:58:39;;;;;;;10.40;2.23;;;6.20;99.90;;;;;;4133108;28;20263;-92
2022/11/21 06:00:40;;;;;;;8.83;2.27;;;6.20;99.90;;;;;;4133492;28;20165;-93
2022/11/21 06:05:18;;;;;;;11.33;2.67;;;6.20;99.90;;;;;;4149434;28;20190;-94
2022/11/21 06:07:28;;;;;;;17.93;2.50;;;6.20;99.90;;;;;;4149384;28;20185;-93
2022/11/21 06:09:29;;;;;;;9.77;2.30;;;6.30;99.90;;;;;;4133081;28;20173;-93
2022/11/21 06:11:32;;;;;;;12.70;2.73;;;6.20;99.90;;;;;;4132419;28;20272;-91
2022/11/21 06:13:36;;;;;;;7.53;2.60;;;6.10;99.90;;;;;;4133449;28;20197;-91
2022/11/21 06:15:37;;;;;;;15.43;2.80;;;5.90;99.90;;;;;;4133029;28;20543;-92
2022/11/21 06:17:37;;;;;;;13.73;2.60;;;5.90;99.90;;;;;;4149288;28;20263;-91
2022/11/21 06:19:38;;;;;;;12.73;2.40;;;6.00;99.90;;;;;;4149535;28;20173;-90
2022/11/21 06:21:39;;;;;;;11.00;2.40;;;6.00;99.90;;;;;;4149639;28;20233;-92
2022/11/21 06:23:41;;;;;;;10.77;2.20;;;6.00;99.90;;;;;;4149162;28;20303;-91
2022/11/21 06:25:43;;;;;;;7.83;2.47;;;6.00;99.90;;;;;;4132958;28;20169;-91
2022/11/21 06:27:43;;;;;;;11.20;2.30;;;6.00;99.90;;;;;;4149067;28;20177;-94
2022/11/21 06:29:44;;;;;;;11.50;2.20;;;6.00;99.90;;;;;;4149077;28;20617;-91
2022/11/21 06:31:45;;;;;;;12.33;2.67;;;6.00;99.90;;;;;;4133131;28;20185;-92
2022/11/21 06:33:46;;;;;;;9.73;2.33;;;6.00;99.90;;;;;;4132557;28;20229;-92
2022/11/21 06:35:47;;;;;;;11.23;2.20;;;6.00;99.90;;;;;;4148936;28;20184;-90
2022/11/21 06:37:51;;;;;;;10.40;2.37;;;5.90;99.90;;;;;;4132395;28;20743;-94
2022/11/21 06:39:51;;;;;;;9.73;2.23;;;5.80;99.90;;;;;;4148885;28;20169;-95
2022/11/21 06:41:52;;;;;;;6.77;2.40;;;5.90;99.90;;;;;;4149165;28;20196;-93
2022/11/21 06:43:53;;;;;;;9.47;2.00;;;5.90;99.90;;;;;;4132836;28;20200;-93
2022/11/21 06:45:55;;;;;;;12.13;2.10;;;5.90;99.90;;;;;;4148829;28;20177;-92
2022/11/21 06:47:56;;;;;;;10.53;1.83;;;5.90;99.90;;;;;;4132610;28;20268;-91
2022/11/21 06:49:57;;;;;;;19.70;2.30;;;5.80;99.90;;;;;;4148578;28;20743;-92
2022/11/21 06:51:58;;;;;;;9.73;2.00;;;5.80;99.90;;;;;;4149071;28;20180;-94
2022/11/21 06:53:59;;;;;;;10.07;2.30;;;5.50;99.90;;;;;;4132562;28;20249;-91
2022/11/21 06:56:01;;;;;;;17.23;2.10;;;5.50;99.90;;;;;;4148928;28;20172;-90
2022/11/21 06:58:01;;;;;;;7.53;1.87;;;5.40;99.90;;;;;;4132301;28;20256;-92
2022/11/21 07:00:04;;;;;;;7.53;1.57;;;5.20;99.90;;;;;;4148680;28;20581;-94
2022/11/21 07:02:05;;;;;;;6.87;1.60;;;5.20;99.90;;;;;;4132074;28;20185;-91
2022/11/21 07:04:05;;;;;;;9.57;1.70;;;5.30;99.90;;;;;;4132572;28;20641;-93
2022/11/21 07:06:09;;;;;;;15.37;2.00;;;5.30;99.90;;;;;;4132216;28;20169;-93
2022/11/21 07:08:12;;;;;;;6.63;1.53;;;5.30;99.90;;;;;;4132757;28;20180;-92
2022/11/21 07:10:19;;;;;;;18.77;2.20;;;5.40;99.90;;;;;;4132243;28;20178;-95
2022/11/21 07:14:39;;;;;;;6.50;1.63;;;5.40;99.90;;;;;;4148844;28;20200;-93
2022/11/21 07:16:39;;;;;;;10.90;1.50;;;5.40;99.90;;;;;;4149071;28;20199;-92
2022/11/21 07:18:44;;;;;;;14.93;1.80;;;5.40;99.90;;;;;;4148515;28;20705;-92
2022/11/21 07:20:45;;;;;;;11.63;2.27;;;5.30;99.90;;;;;;4132616;28;20658;-91
2022/11/21 07:22:46;;;;;;;12.10;2.03;;;5.20;99.90;;;;;;4148762;28;20184;-95
2022/11/21 07:24:46;;;;;;;11.60;2.43;;;5.30;99.90;;;;;;4148532;28;20181;-94
2022/11/21 07:26:47;;;;;;;5.60;1.87;;;5.30;99.90;;;;;;4147930;28;20176;-94
2022/11/21 07:28:48;;;;;;;8.07;1.70;;;5.40;99.90;;;;;;4148259;28;20179;-91
2022/11/21 07:30:49;;;;;;;16.23;1.90;;;5.40;99.90;;;;;;4148241;28;20180;-92
2022/11/21 07:32:57;;;;;;;9.20;1.83;;;5.50;99.90;;;;;;4132154;28;20595;-91
2022/11/21 07:34:58;;;;;;;8.83;1.63;;;5.60;99.90;;;;;;4132213;28;20640;-91
2022/11/21 07:36:59;;;;;;;14.20;1.80;;;5.70;99.90;;;;;;4131733;28;20228;-92
2022/11/21 07:39:00;;;;;;;11.07;1.93;;;5.70;99.90;;;;;;4132154;28;20169;-92
2022/11/21 07:41:00;;;;;;;8.43;1.73;;;5.80;99.90;;;;;;4148180;28;20554;-92
2022/11/21 07:43:04;;;;;;;14.87;2.00;;;5.90;99.90;;;;;;4132069;28;20162;-92
2022/11/21 07:45:05;;;;;;;8.87;1.60;;;6.00;99.90;;;;;;4131626;28;20181;-91
2022/11/21 07:47:06;;;;;;;9.23;2.00;;;6.00;99.90;;;;;;4148316;28;20173;-91
2022/11/21 07:49:06;;;;;;;9.13;1.97;;;6.20;99.90;;;;;;4148114;28;20160;-92
2022/11/21 07:51:07;;;;;;;12.77;2.20;;;6.30;99.90;;;;;;4148442;28;20687;-92
2022/11/21 07:53:12;;;;;;;11.47;1.97;;;6.60;99.90;;;;;;4147969;28;20542;-92
2022/11/21 07:55:13;;;;;;;11.33;2.67;;;6.70;99.90;;;;;;4132082;28;20370;-91
2022/11/21 07:57:14;;;;;;;13.50;2.30;;;6.80;99.90;;;;;;4148013;28;20216;-93
2022/11/21 07:59:15;;;;;;;17.10;2.80;;;7.00;99.90;;;;;;4147954;28;20181;-93
2022/11/21 08:01:15;;;;;;;10.00;1.97;;;6.90;99.90;;;;;;4148126;28;20223;-91
2022/11/21 08:03:16;;;;;;;10.30;2.20;;;7.00;99.90;;;;;;4147958;28;20192;-92
2022/11/21 08:05:17;;;;;;;10.77;2.00;;;7.00;99.90;;;;;;4148209;28;20197;-92
2022/11/21 08:07:20;;;;;;;9.43;2.00;;;6.90;99.90;;;;;;4148144;28;20173;-94
2022/11/21 08:09:26;;;;;;;11.03;2.20;;;6.90;99.90;;;;;;4148220;28;20191;-94
2022/11/21 08:11:27;;;;;;;12.07;2.60;;;7.00;99.90;;;;;;4131721;28;20216;-91
2022/11/21 08:13:28;;;;;;;11.27;2.13;;;6.90;99.90;;;;;;4148015;28;20192;-95
2022/11/21 08:15:29;;;;;;;8.83;2.20;;;7.10;99.90;;;;;;4131604;28;20228;-94
2022/11/21 08:17:35;;;;;;;12.43;2.77;;;7.00;99.90;;;;;;4147914;28;20200;-91
2022/11/21 08:19:36;;;;;;;7.47;2.23;;;7.10;99.90;;;;;;4131738;28;20630;-93
2022/11/21 08:21:37;;;;;;;10.10;2.10;;;7.30;99.90;;;;;;4147696;28;20165;-92
2022/11/21 08:23:38;;;;;;;17.93;2.57;;;7.50;99.90;;;;;;4147668;28;20192;-92
2022/11/21 08:25:40;;;;;;;10.00;2.50;;;7.50;99.90;;;;;;4147436;28;20177;-93
2022/11/21 08:27:41;;;;;;;16.50;1.97;;;7.40;99.90;;;;;;4131564;28;20174;-94
2022/11/21 08:29:42;;;;;;;16.33;2.90;;;7.70;99.90;;;;;;4147784;28;20271;-91
2022/11/21 08:31:43;;;;;;;7.93;2.13;;;8.00;99.90;;;;;;4147702;28;20177;-91
2022/11/21 08:33:44;;;;;;;11.18;2.03;;;8.10;99.90;;;;;;4131152;28;20323;-91
2022/11/21 08:35:45;;;;;;;11.38;2.28;;;8.30;99.90;;;;;;4149551;28;20619;-92
2022/11/21 08:37:46;;;;;;;10.07;2.57;;;8.60;99.90;;;;;;4150739;28;20208;-92
2022/11/21 08:39:46;;;;;;;14.13;2.45;;;8.50;99.90;;;;;;4150801;28;20211;-93
2022/11/21 08:42:03;;;;;;;18.60;2.90;;;8.50;99.90;;;;;;4150666;28;20211;-92
2022/11/21 08:44:05;;;;;;;12.05;3.30;;;8.50;99.90;;;;;;4133914;28;20193;-91
2022/11/21 08:46:05;;;;;;;18.45;3.35;;;8.40;99.90;;;;;;4134123;28;20199;-92
2022/11/21 08:48:10;;;;;;;10.77;2.97;;;8.30;99.90;;;;;;4133768;28;20610;-91
2022/11/21 08:50:11;;;;;;;15.43;3.08;;;8.30;99.90;;;;;;4134043;28;20346;-92
2022/11/21 08:52:13;;;;;;;16.53;3.40;;;8.40;99.90;;;;;;4150183;28;20272;-93
2022/11/21 08:54:19;;;;;;;32.25;3.45;;;8.60;99.90;;;;;;4133422;28;20190;-92
2022/11/21 08:56:19;;;;;;;12.80;3.33;;;8.80;99.90;;;;;;4133633;28;20633;-93
2022/11/21 08:58:20;;;;;;;14.63;4.00;;;8.80;99.90;;;;;;4149701;28;20209;-90
2022/11/21 09:00:21;;;;;;;18.75;3.45;;;9.00;99.90;;;;;;4149996;28;20764;-92
2022/11/21 09:02:22;;;;;;;20.77;3.97;;;9.10;99.90;;;;;;4133507;28;20177;-90
2022/11/21 09:04:23;;;;;;;15.65;4.15;;;9.20;99.90;;;;;;4150315;28;20193;-92
2022/11/21 09:06:23;;;;;;;12.45;3.58;;;9.40;99.90;;;;;;4133981;28;20174;-94
2022/11/21 09:08:25;;;;;;;19.97;4.17;;;8.80;99.90;;;;;;4134118;28;20169;-92
2022/11/21 09:10:26;;;;;;;12.23;3.43;;;8.70;99.90;;;;;;4134472;28;20177;-94
2022/11/21 09:12:26;;;;;;;14.25;3.42;;;9.00;99.90;;;;;;4149995;28;20176;-95
2022/11/21 09:19:07;;;;;;;16.88;4.13;;;8.70;99.90;;;;;;4149865;28;20531;-92
2022/11/21 09:21:07;;;;;;;19.23;4.40;;;8.80;99.90;;;;;;4150342;28;20215;-91
2022/11/21 09:23:14;;;;;;;11.57;3.60;;;8.90;99.90;;;;;;4149932;28;20176;-91
2022/11/21 09:25:15;;;;;;;16.52;4.40;;;9.10;99.90;;;;;;4133696;28;20623;-94
2022/11/21 09:27:15;;;;;;;12.80;4.28;;;8.90;99.90;;;;;;4149808;28;20187;-91
2022/11/21 09:29:16;;;;;;;22.00;4.50;;;8.70;99.90;;;;;;4149327;28;20232;-94
2022/11/21 09:31:17;;;;;;;14.47;4.23;;;8.60;99.90;;;;;;4149394;28;20175;-92
2022/11/21 09:33:18;;;;;;;14.77;4.07;;;8.60;99.90;;;;;;4150210;28;20196;-92
2022/11/21 09:35:19;;;;;;;16.90;4.60;;;8.60;99.90;;;;;;4149828;28;20177;-94
2022/11/21 09:37:21;;;;;;;13.33;3.90;;;8.50;99.90;;;;;;4149716;28;20259;-94
2022/11/21 09:39:22;;;;;;;12.93;3.73;;;8.60;99.90;;;;;;4133207;28;20181;-92
2022/11/21 09:44:19;;;;;;;8.50;3.40;;;8.60;99.90;;;;;;4149908;28;20211;-92
2022/11/21 09:46:28;;;;;;;10.97;3.40;;;8.20;99.90;;;;;;4131051;28;20244;-92
2022/11/21 09:48:57;;;;;;;11.47;2.70;;;8.20;99.90;;;;;;4133177;28;20288;-91
2022/11/21 09:51:04;;;;;;;10.93;3.33;;;8.40;99.90;;;;;;4134008;28;20243;-91
2022/11/21 09:53:09;;;;;;;11.53;3.07;;;8.60;99.90;;;;;;4133050;28;20566;-95
2022/11/21 09:55:40;;;;;;;12.90;3.20;;;8.80;99.90;;;;;;4133025;28;20216;-93
2022/11/21 09:57:41;;;;;;;11.60;3.63;;;8.80;99.90;;;;;;4133101;28;20209;-92
2022/11/21 09:59:44;;;;;;;10.77;3.07;;;8.90;99.90;;;;;;4133356;28;20201;-90
2022/11/21 10:01:46;;;;;;;13.20;3.37;;;8.80;99.90;;;;;;4132525;28;20178;-92
2022/11/21 10:03:49;;;;;;;9.03;2.70;;;9.00;99.90;;;;;;4133857;28;20200;-90
2022/11/21 10:06:22;;;;;;;13.73;3.43;;;9.00;99.90;;;;;;4132897;28;20220;-93
2022/11/21 10:08:45;;;;;;;10.73;3.40;;;9.10;99.90;;;;;;4133042;28;20276;-94
2022/11/21 10:10:55;;;;;;;12.40;3.07;;;9.20;99.90;;;;;;4132942;28;20181;-94
2022/11/21 10:13:12;;;;;;;13.67;3.10;;;9.20;99.90;;;;;;4132785;28;20260;-91
2022/11/21 10:15:21;;;;;;;14.97;3.53;;;9.20;99.90;;;;;;4133126;28;20177;-93
2022/11/21 10:17:38;;;;;;;10.77;3.40;;;9.20;99.90;;;;;;4132157;28;20205;-94
2022/11/21 10:20:18;;;;;;;8.10;3.47;;;9.20;99.90;;;;;;4132871;28;20630;-91
2022/11/21 10:22:27;;;;;;;9.60;3.28;;;9.10;99.90;;;;;;4130721;28;20756;-93
2022/11/21 10:24:40;;;;;;;11.43;3.57;;;9.20;99.90;;;;;;4132644;28;20249;-92
2022/11/21 10:26:58;;;;;;;16.17;3.77;;;9.20;99.90;;;;;;4132615;28;20184;-92
2022/11/21 10:29:13;;;;;;;10.55;3.17;;;9.40;99.90;;;;;;4134070;28;20539;-91
2022/11/21 10:31:21;;;;;;;18.85;4.22;;;9.50;99.90;;;;;;4132919;28;20197;-93
2022/11/21 10:33:33;;;;;;;15.63;4.38;;;9.60;99.90;;;;;;4133087;28;20554;-92
2022/11/21 10:35:46;;;;;;;14.40;3.85;;;9.80;99.90;;;;;;4132734;28;20186;-92
2022/11/21 10:38:10;;;;;;;10.07;4.03;;;9.90;99.90;;;;;;4132843;28;20284;-92
2022/11/21 10:40:25;;;;;;;15.32;4.03;;;10.00;99.90;;;;;;4132840;28;20173;-92
2022/11/21 10:42:37;;;;;;;10.48;3.78;;;10.20;99.90;;;;;;4132534;28;20196;-94
2022/11/21 10:46:59;;;;;;;10.18;3.95;;;10.30;99.90;;;;;;4148717;28;20267;-92
2022/11/21 10:49:06;;;;;;;13.07;4.30;;;10.30;99.90;;;;;;4132396;28;20618;-95
2022/11/21 10:51:44;;;;;;;10.30;4.07;;;10.20;99.90;;;;;;4133128;28;20181;-94
2022/11/21 10:56:22;;;;;;;12.32;4.00;;;9.80;99.90;;;;;;4148785;28;20187;-91
2022/11/21 10:58:47;;;;;;;13.82;4.32;;;9.80;99.90;;;;;;4132519;28;20891;-94
2022/11/21 11:00:57;;;;;;;9.23;3.70;;;10.10;99.90;;;;;;4132534;28;20196;-92
2022/11/21 11:03:06;;;;;;;11.68;4.43;;;9.90;99.90;;;;;;4132678;28;20181;-93
2022/11/21 11:05:15;;;;;;;10.38;4.35;;;9.90;99.90;;;;;;4132903;28;20181;-93
2022/11/21 11:07:25;;;;;;;12.03;4.33;;;10.10;99.90;;;;;;4133105;28;20177;-91
2022/11/21 11:09:34;;;;;;;10.45;3.95;;;10.20;99.90;;;;;;4132684;28;20731;-92
2022/11/21 11:11:37;;;;;;;9.98;3.90;;;10.30;99.90;;;;;;4132527;28;20193;-93
2022/11/21 11:14:03;;;;;;;15.63;5.15;;;10.50;99.90;;;;;;4132439;28;20260;-90
2022/11/21 11:16:10;;;;;;;12.77;4.57;;;10.60;99.90;;;;;;4132349;28;20644;-92
2022/11/21 11:18:13;;;;;;;11.40;4.60;;;10.40;99.90;;;;;;4132149;28;20583;-94
2022/11/21 11:20:37;;;;;;;12.55;4.38;;;10.30;99.90;;;;;;4132321;28;20173;-92
2022/11/21 11:22:38;;;;;;;11.27;4.47;;;10.20;99.90;;;;;;4132144;28;20181;-92
2022/11/21 11:24:52;;;;;;;14.05;4.82;;;10.20;99.90;;;;;;4147743;28;20674;-93
2022/11/21 11:26:59;;;;;;;13.98;4.80;;;10.20;99.90;;;;;;4132144;28;20209;-94
2022/11/21 11:29:29;;;;;;;13.52;4.90;;;10.40;99.90;;;;;;4148964;28;20672;-92